Time;durP1;ratioP1;P1;durP2;ratioP2;P2;SDS_P1;SDS_P2;PMS_P1;PMS_P2;Temp;Humidity;BMP_temperature;BMP_pressure;BME280_temperature;BME280_humidity;BME280_pressure;Samples;Min_cycle;Max_cycle;Signal;HPM_P1;HPM_P2
2023/07/18 00:02:07;;;;;;;7.23;3.97;;;15.10;99.90;;;14.86;78.38;101472.75;5074128;28;20196;-72
2023/07/18 00:04:40;;;;;;;6.70;4.00;;;15.10;99.90;;;14.77;77.76;101475.59;5074041;28;20233;-72
2023/07/18 00:07:13;;;;;;;5.43;4.13;;;15.10;99.90;;;14.80;78.65;101472.56;5073956;28;20308;-72
2023/07/18 00:09:45;;;;;;;4.93;4.37;;;15.00;99.90;;;14.86;77.78;101477.28;5073934;28;20266;-72
2023/07/18 00:12:17;;;;;;;6.80;3.90;;;15.10;99.90;;;14.69;78.13;101466.50;5073897;28;20225;-72
2023/07/18 00:14:50;;;;;;;8.27;4.30;;;15.00;99.90;;;14.77;78.01;101471.06;5073924;28;20193;-72
2023/07/18 00:17:22;;;;;;;8.63;4.40;;;15.00;99.90;;;14.86;78.13;101471.91;5073461;28;20221;-72
2023/07/18 00:19:55;;;;;;;7.30;4.37;;;15.10;99.90;;;14.66;77.84;101472.25;5073810;28;20196;-72
2023/07/18 00:22:27;;;;;;;5.37;4.07;;;15.10;99.90;;;14.67;78.02;101468.53;5074358;28;20217;-72
2023/07/18 00:24:59;;;;;;;9.50;4.13;;;15.00;99.90;;;14.70;78.00;101473.59;5073428;28;20676;-72
2023/07/18 00:27:31;;;;;;;8.90;4.20;;;15.00;99.90;;;14.60;78.20;101472.06;5073703;28;20190;-72
2023/07/18 00:30:04;;;;;;;9.37;4.50;;;14.90;99.90;;;14.69;77.76;101471.91;5073620;28;20224;-72
2023/07/18 00:32:36;;;;;;;7.77;4.53;;;15.00;99.90;;;14.70;78.15;101467.34;5073375;28;20190;-72
2023/07/18 00:35:12;;;;;;;7.30;3.93;;;15.00;99.90;;;14.66;77.93;101469.53;5073265;28;20627;-72
2023/07/18 00:37:44;;;;;;;7.33;3.93;;;14.90;99.90;;;14.63;78.25;101467.19;5073624;28;20189;-72
2023/07/18 00:40:18;;;;;;;5.50;4.10;;;14.90;99.90;;;14.66;78.56;101468.69;5073570;28;20189;-72
2023/07/18 00:42:51;;;;;;;8.40;3.87;;;14.90;99.90;;;14.62;77.76;101464.69;5073183;28;20209;-72
2023/07/18 00:45:23;;;;;;;5.80;4.03;;;14.90;99.90;;;14.60;78.62;101464.84;5073413;28;20257;-72
2023/07/18 00:47:56;;;;;;;6.37;4.33;;;14.90;99.90;;;14.64;78.08;101462.66;5073237;28;20218;-72
2023/07/18 00:50:30;;;;;;;7.80;4.40;;;14.70;99.90;;;14.50;78.40;101453.38;5073537;28;20190;-72
2023/07/18 00:53:03;;;;;;;6.10;4.13;;;14.90;99.90;;;14.58;78.21;101452.56;5073459;28;20272;-72
2023/07/18 00:55:37;;;;;;;10.60;4.73;;;14.80;99.90;;;14.59;78.15;101452.38;5073382;28;20225;-72
2023/07/18 00:58:10;;;;;;;7.23;4.10;;;14.90;99.90;;;14.54;78.78;101457.44;5073473;28;20194;-72
2023/07/18 01:00:42;;;;;;;9.40;3.80;;;14.80;99.90;;;14.60;77.92;101451.38;5073542;28;20232;-72
2023/07/18 01:03:16;;;;;;;5.73;3.97;;;14.90;99.90;;;14.55;78.21;101442.97;5073159;28;20186;-72
2023/07/18 01:05:49;;;;;;;6.47;4.13;;;14.80;99.90;;;14.52;78.33;101450.53;5073576;28;20229;-72
2023/07/18 01:08:18;;;;;;;13.27;4.50;;;14.80;99.90;;;14.50;78.18;101449.84;5091984;28;20267;-71
2023/07/18 01:10:49;;;;;;;6.93;3.90;;;14.80;99.90;;;14.44;78.71;101448.69;5096844;28;20209;-71
2023/07/18 01:13:22;;;;;;;9.33;4.37;;;14.70;99.90;;;14.38;78.41;101445.81;5096918;28;20185;-72
2023/07/18 01:15:54;;;;;;;11.07;4.17;;;14.70;99.90;;;14.48;78.52;101450.03;5096035;28;20249;-72
2023/07/18 01:18:25;;;;;;;9.50;4.30;;;14.70;99.90;;;14.35;79.09;101452.34;5097581;28;20180;-71
2023/07/18 01:21:00;;;;;;;7.40;4.33;;;14.70;99.90;;;14.39;78.75;101447.47;5097528;28;20181;-71
2023/07/18 01:23:33;;;;;;;5.43;4.30;;;14.70;99.90;;;14.41;78.44;101446.31;5075052;28;20193;-73
2023/07/18 01:26:05;;;;;;;8.77;4.80;;;14.70;99.90;;;14.42;78.93;101445.28;5073077;28;20316;-72
2023/07/18 01:28:37;;;;;;;7.87;4.13;;;14.70;99.90;;;14.51;78.24;101441.59;5072700;28;20639;-72
2023/07/18 01:31:10;;;;;;;6.70;4.30;;;14.90;99.90;;;14.38;78.82;101435.03;5073116;28;20277;-72
2023/07/18 01:33:43;;;;;;;7.60;4.73;;;14.70;99.90;;;14.43;78.97;101441.59;5072749;28;20630;-72
2023/07/18 01:36:16;;;;;;;8.87;4.80;;;14.70;99.90;;;14.37;78.66;101444.97;5072711;28;20231;-72
2023/07/18 01:38:49;;;;;;;7.20;4.40;;;14.70;99.90;;;14.32;78.89;101438.34;5073035;28;20221;-72
2023/07/18 01:41:21;;;;;;;10.77;4.60;;;14.60;99.90;;;14.28;78.91;101434.34;5072806;28;20272;-72
2023/07/18 01:43:53;;;;;;;9.33;4.40;;;14.60;99.90;;;14.15;79.55;101434.81;5073018;28;20213;-72
2023/07/18 01:46:25;;;;;;;13.93;4.47;;;14.40;99.90;;;14.25;79.47;101435.47;5073524;28;20229;-72
2023/07/18 01:48:57;;;;;;;6.50;4.37;;;14.50;99.90;;;14.39;78.77;101426.78;5072848;28;20237;-72
2023/07/18 01:51:29;;;;;;;8.53;4.50;;;14.80;99.90;;;14.46;78.27;101429.63;5072919;28;20189;-72
2023/07/18 01:54:02;;;;;;;8.13;4.07;;;14.80;99.90;;;14.53;78.12;101431.50;5072842;28;20189;-73
2023/07/18 01:56:35;;;;;;;8.77;4.50;;;14.80;99.90;;;14.53;76.68;101438.72;5072779;28;20311;-73
2023/07/18 01:59:07;;;;;;;7.80;4.10;;;14.90;99.90;;;14.61;76.75;101436.88;5072802;28;20186;-73
2023/07/18 02:01:40;;;;;;;7.10;3.73;;;14.90;99.90;;;14.56;76.13;101423.06;5075532;28;20228;-73
2023/07/18 02:04:11;;;;;;;6.37;4.07;;;14.90;99.90;;;14.59;76.09;101433.50;5076387;28;20623;-74
2023/07/18 02:06:43;;;;;;;6.60;4.07;;;14.90;99.90;;;14.57;76.32;101435.53;5076438;28;20650;-73
2023/07/18 02:09:17;;;;;;;7.37;4.27;;;14.90;99.90;;;14.57;75.96;101432.00;5076272;28;20305;-73
2023/07/18 02:11:49;;;;;;;9.90;4.17;;;14.90;99.90;;;14.54;76.04;101430.50;5076227;28;20217;-73
2023/07/18 02:14:20;;;;;;;7.57;4.30;;;14.80;99.90;;;14.57;76.21;101424.75;5076222;28;20225;-73
2023/07/18 02:16:53;;;;;;;7.90;4.33;;;14.90;99.90;;;14.56;76.34;101427.59;5076086;28;20229;-73
2023/07/18 02:19:26;;;;;;;9.13;4.30;;;14.90;99.90;;;14.56;76.09;101433.84;5075815;28;20208;-72
2023/07/18 02:21:58;;;;;;;9.10;4.43;;;14.90;99.90;;;14.58;75.52;101436.38;5075742;28;20630;-72
2023/07/18 02:24:32;;;;;;;6.53;3.77;;;14.90;99.90;;;14.57;75.62;101435.53;5075755;28;20580;-72
2023/07/18 02:27:04;;;;;;;8.30;4.40;;;14.90;99.90;;;14.60;75.21;101437.03;5075850;28;20313;-72
2023/07/18 02:29:38;;;;;;;8.97;4.37;;;14.90;99.90;;;14.56;75.68;101438.38;5075833;28;20205;-73
2023/07/18 02:32:11;;;;;;;9.33;4.97;;;14.80;99.90;;;14.54;76.51;101435.03;5075615;28;20284;-73
2023/07/18 02:34:43;;;;;;;9.53;4.60;;;14.80;99.90;;;14.48;76.92;101439.25;5075857;28;20204;-73
2023/07/18 02:37:15;;;;;;;12.60;5.00;;;14.80;99.90;;;14.35;77.93;101446.97;5075731;28;20317;-73
2023/07/18 02:39:48;;;;;;;9.70;4.33;;;14.60;99.90;;;14.39;77.21;101442.94;5075774;28;20186;-73
2023/07/18 02:42:20;;;;;;;9.73;4.77;;;14.70;99.90;;;14.40;77.06;101444.63;5075426;28;20213;-74
2023/07/18 02:44:52;;;;;;;8.37;5.07;;;14.70;99.90;;;14.43;76.70;101449.69;5075310;28;20225;-74
2023/07/18 02:47:24;;;;;;;7.57;4.37;;;14.70;99.90;;;14.43;76.72;101451.53;5075251;28;20229;-73
2023/07/18 02:49:56;;;;;;;9.30;4.63;;;14.80;99.90;;;14.46;76.60;101457.41;5075207;28;20210;-72
2023/07/18 02:52:28;;;;;;;8.73;5.07;;;14.80;99.90;;;14.47;76.71;101464.50;5075531;28;20194;-72
2023/07/18 02:55:03;;;;;;;8.13;4.63;;;14.80;99.90;;;14.42;76.49;101464.16;5075437;28;20194;-73
2023/07/18 02:57:35;;;;;;;8.73;4.80;;;14.80;99.90;;;14.43;76.52;101459.59;5075461;28;20314;-74
2023/07/18 03:00:19;;;;;;;9.80;5.10;;;14.70;99.90;;;14.40;76.94;101470.72;5075394;28;20552;-74
2023/07/18 03:02:53;;;;;;;10.03;5.17;;;14.70;99.90;;;14.35;76.88;101465.81;5075350;28;20197;-74
2023/07/18 03:05:25;;;;;;;13.87;5.40;;;14.70;99.90;;;14.21;78.09;101466.47;5075203;28;20247;-74
2023/07/18 03:07:57;;;;;;;12.73;5.63;;;14.50;99.90;;;14.12;78.52;101478.22;5075772;28;20272;-73
2023/07/18 03:10:30;;;;;;;9.57;5.57;;;14.40;99.90;;;14.02;79.23;101477.53;5075085;28;20275;-74
2023/07/18 03:13:02;;;;;;;12.80;6.00;;;14.40;99.90;;;13.80;80.50;101484.34;5074995;28;20193;-74
2023/07/18 03:15:34;;;;;;;10.83;6.23;;;14.20;99.90;;;13.67;80.88;101484.81;5074975;28;20230;-74
2023/07/18 03:18:06;;;;;;;12.13;6.30;;;14.00;99.90;;;13.63;81.50;101488.84;5075002;28;20198;-74
2023/07/18 03:20:41;;;;;;;13.00;6.40;;;14.00;99.90;;;13.60;81.65;101483.78;5074966;28;20189;-74
2023/07/18 03:23:13;;;;;;;12.43;6.83;;;13.90;99.90;;;13.52;81.96;101491.84;5074900;28;20200;-73
2023/07/18 03:25:47;;;;;;;10.13;5.90;;;14.00;99.90;;;13.53;81.91;101484.59;5074520;28;20705;-73
2023/07/18 03:28:19;;;;;;;10.53;6.43;;;13.90;99.90;;;13.62;81.60;101481.78;5074806;28;20190;-73
2023/07/18 03:30:53;;;;;;;15.80;6.10;;;14.00;99.90;;;13.61;81.66;101477.41;5074609;28;20308;-73
2023/07/18 03:33:25;;;;;;;12.50;5.90;;;14.00;99.90;;;13.62;81.52;101479.09;5073025;28;20281;-73
2023/07/18 03:35:58;;;;;;;11.50;6.57;;;14.00;99.90;;;13.57;81.94;101478.72;5074512;28;20229;-73
2023/07/18 03:38:30;;;;;;;10.20;6.07;;;14.00;99.90;;;13.60;81.33;101482.94;5074187;28;20555;-73
2023/07/18 03:41:03;;;;;;;11.90;6.33;;;14.00;99.90;;;13.62;81.67;101487.19;5074478;28;20281;-73
2023/07/18 03:43:37;;;;;;;17.07;6.37;;;14.10;99.90;;;13.64;81.56;101479.78;5074212;28;20228;-74
2023/07/18 03:46:09;;;;;;;10.13;5.90;;;14.10;99.90;;;13.69;81.69;101477.44;5074375;28;20257;-73
2023/07/18 03:48:40;;;;;;;13.93;6.30;;;14.10;99.90;;;13.66;82.02;101477.75;5074423;28;20192;-73
2023/07/18 03:51:14;;;;;;;13.50;6.40;;;14.10;99.90;;;13.63;82.67;101482.63;5074277;28;20210;-73
2023/07/18 03:53:46;;;;;;;14.70;6.10;;;14.00;99.90;;;13.66;82.20;101477.75;5074287;28;20194;-74
2023/07/18 03:56:21;;;;;;;10.83;6.03;;;14.00;99.90;;;13.63;82.69;101477.25;5074229;28;20312;-74
2023/07/18 03:58:53;;;;;;;13.27;6.50;;;14.10;99.90;;;13.63;82.56;101477.25;5073982;28;20281;-73
2023/07/18 04:01:25;;;;;;;11.70;6.33;;;14.10;99.90;;;13.77;82.41;101475.78;5074428;28;20272;-72
2023/07/18 04:03:57;;;;;;;12.80;5.83;;;14.20;99.90;;;13.86;81.44;101469.41;5080491;28;20185;-72
2023/07/18 04:06:29;;;;;;;16.00;6.53;;;14.30;99.90;;;13.88;81.35;101467.41;5086928;28;20226;-71
2023/07/18 04:09:01;;;;;;;17.27;6.10;;;14.30;99.90;;;13.95;81.25;101468.41;5085000;28;20614;-73
2023/07/18 04:11:34;;;;;;;10.17;6.07;;;14.40;99.90;;;14.01;81.03;101475.84;5087241;28;20209;-72
2023/07/18 04:14:06;;;;;;;11.77;6.10;;;14.50;99.90;;;14.05;81.09;101472.66;5085171;28;20228;-72
2023/07/18 04:16:38;;;;;;;9.70;5.10;;;14.50;99.90;;;14.11;81.18;101471.16;5085678;28;20229;-73
2023/07/18 04:19:10;;;;;;;11.47;5.73;;;14.50;99.90;;;13.94;82.23;101474.84;5081373;28;20224;-73
2023/07/18 04:21:42;;;;;;;11.47;6.20;;;14.40;99.90;;;13.99;81.48;101477.88;5073572;28;20276;-73
2023/07/18 04:24:14;;;;;;;9.77;5.80;;;14.40;99.90;;;13.99;81.39;101480.56;5073256;28;20251;-73
2023/07/18 04:26:47;;;;;;;12.23;6.07;;;14.40;99.90;;;13.94;82.40;101480.22;5073685;28;20257;-73
2023/07/18 04:29:19;;;;;;;10.40;5.20;;;14.30;99.90;;;13.93;82.20;101473.16;5073750;28;20277;-73
2023/07/18 04:31:51;;;;;;;10.43;5.60;;;14.30;99.90;;;13.91;81.94;101472.44;5073356;28;20300;-73
2023/07/18 04:34:24;;;;;;;13.37;5.97;;;14.30;99.90;;;13.95;81.74;101476.50;5073402;28;20186;-73
2023/07/18 04:36:55;;;;;;;10.87;5.97;;;14.30;99.90;;;13.91;81.92;101464.38;5073599;28;20286;-73
2023/07/18 04:39:28;;;;;;;13.23;6.33;;;14.40;99.90;;;13.91;81.45;101472.44;5073644;28;20277;-73
2023/07/18 04:42:03;;;;;;;13.73;6.00;;;14.30;99.90;;;13.73;82.31;101468.00;5073349;28;20292;-73
2023/07/18 04:44:35;;;;;;;9.93;6.50;;;14.20;99.90;;;13.83;82.00;101465.22;5073709;28;20240;-73
2023/07/18 04:47:10;;;;;;;14.13;6.10;;;14.30;99.90;;;13.84;82.29;101471.41;5073463;28;20227;-73
2023/07/18 04:49:42;;;;;;;10.80;5.70;;;14.30;99.90;;;13.77;82.29;101462.34;5073505;28;20204;-73
2023/07/18 04:52:15;;;;;;;9.97;5.60;;;14.20;99.90;;;13.71;82.77;101470.03;5073064;28;20605;-74
2023/07/18 04:54:47;;;;;;;13.03;5.67;;;14.20;99.90;;;13.81;82.69;101466.34;5073488;28;20190;-73
2023/07/18 04:57:21;;;;;;;12.20;6.50;;;14.30;99.90;;;13.80;83.02;101464.69;5074420;28;20308;-73
2023/07/18 04:59:53;;;;;;;12.20;5.40;;;14.30;99.90;;;13.76;83.03;101461.50;5073444;28;20189;-74
2023/07/18 05:02:24;;;;;;;16.33;6.20;;;14.20;99.90;;;13.78;82.64;101466.69;5073378;28;20277;-74
2023/07/18 05:04:57;;;;;;;12.27;6.30;;;14.20;99.90;;;13.89;82.95;101466.41;5074213;28;20193;-74
2023/07/18 05:07:29;;;;;;;12.87;5.53;;;14.30;99.90;;;13.88;82.97;101462.84;5073306;28;20533;-74
2023/07/18 05:10:01;;;;;;;8.00;5.43;;;14.40;99.90;;;13.91;83.09;101464.38;5073297;28;20276;-74
2023/07/18 05:12:34;;;;;;;14.83;7.13;;;14.40;99.90;;;13.85;83.00;101460.50;5073235;28;20292;-73
2023/07/18 05:15:08;;;;;;;11.53;5.90;;;14.40;99.90;;;13.94;83.18;101464.06;5073166;28;20272;-73
2023/07/18 05:17:40;;;;;;;12.77;6.20;;;14.40;99.90;;;13.97;83.18;101461.03;5073247;28;20189;-73
2023/07/18 05:20:14;;;;;;;16.93;6.47;;;14.50;99.90;;;14.03;83.01;101463.91;5072884;28;20639;-74
2023/07/18 05:22:48;;;;;;;10.23;6.00;;;14.50;99.90;;;14.06;82.38;101468.13;5072919;28;20601;-73
2023/07/18 05:25:20;;;;;;;13.40;6.00;;;14.60;99.90;;;14.00;82.25;101463.41;5072763;28;20607;-73
2023/07/18 05:27:53;;;;;;;14.43;6.10;;;14.50;99.90;;;14.04;82.42;101464.75;5072855;28;20285;-74
2023/07/18 05:30:26;;;;;;;11.27;5.87;;;14.60;99.90;;;14.10;82.37;101473.03;5073093;28;20198;-74
2023/07/18 05:32:57;;;;;;;12.87;6.13;;;14.60;99.90;;;14.13;82.83;101466.44;5073086;28;20277;-74
2023/07/18 05:35:29;;;;;;;12.07;5.87;;;14.70;99.90;;;14.19;82.61;101471.16;5074071;28;20336;-74
2023/07/18 05:38:01;;;;;;;8.27;5.73;;;14.70;99.90;;;14.26;82.65;101468.66;5076614;28;20540;-74
2023/07/18 05:40:34;;;;;;;10.30;5.53;;;14.80;99.90;;;14.25;82.13;101478.56;5076888;28;20269;-74
2023/07/18 05:43:07;;;;;;;12.63;6.67;;;14.70;99.90;;;14.28;82.37;101478.25;5076427;28;20741;-73
2023/07/18 05:45:39;;;;;;;14.50;6.70;;;14.80;99.90;;;14.26;83.12;101479.44;5076323;28;20221;-73
2023/07/18 05:48:11;;;;;;;12.50;6.60;;;14.80;99.90;;;14.29;82.82;101479.94;5076684;28;20198;-73
2023/07/18 05:50:42;;;;;;;14.77;6.77;;;14.80;99.90;;;14.35;82.99;101473.09;5076580;28;20198;-74
2023/07/18 05:53:14;;;;;;;10.60;5.97;;;14.80;99.90;;;14.40;82.79;101482.34;5077223;28;20192;-74
2023/07/18 05:55:46;;;;;;;8.00;5.47;;;14.90;99.90;;;14.46;82.73;101484.38;5076507;28;20225;-74
2023/07/18 05:58:20;;;;;;;10.63;6.07;;;15.00;99.90;;;14.50;82.25;101480.34;5076209;28;20285;-74
2023/07/18 06:00:51;;;;;;;13.63;6.23;;;15.00;99.90;;;14.54;82.08;101479.00;5076453;28;20194;-74
2023/07/18 06:03:23;;;;;;;11.93;5.73;;;15.10;99.90;;;14.60;82.14;101483.69;5076497;28;20595;-74
2023/07/18 06:05:58;;;;;;;11.80;5.97;;;15.10;99.90;;;14.65;81.87;101485.91;5076339;28;20233;-74
2023/07/18 06:08:30;;;;;;;12.23;6.00;;;15.20;99.90;;;14.73;82.03;101490.47;5076313;28;20242;-74
2023/07/18 06:11:02;;;;;;;11.63;6.13;;;15.30;99.90;;;14.77;81.31;101483.69;5076225;28;20269;-74
2023/07/18 06:13:35;;;;;;;11.07;5.33;;;15.30;99.90;;;14.80;80.69;101494.13;5076010;28;20629;-74
2023/07/18 06:16:07;;;;;;;12.27;6.30;;;15.40;99.90;;;14.88;80.21;101486.03;5076115;28;20225;-74
2023/07/18 06:18:41;;;;;;;12.13;5.50;;;15.40;99.90;;;14.95;79.98;101493.28;5076151;28;20292;-74
2023/07/18 06:21:13;;;;;;;7.10;5.13;;;15.50;99.90;;;15.00;79.97;101484.69;5076109;28;20200;-74
2023/07/18 06:23:45;;;;;;;10.33;5.37;;;15.60;99.90;;;15.07;80.58;101488.38;5075814;28;20288;-74
2023/07/18 06:26:18;;;;;;;9.77;5.90;;;15.60;99.90;;;15.13;80.26;101485.00;5075646;28;20724;-74
2023/07/18 06:28:52;;;;;;;9.13;5.83;;;15.70;99.90;;;15.18;78.87;101483.47;5075683;28;20186;-74
2023/07/18 06:31:26;;;;;;;9.43;4.83;;;15.80;99.90;;;15.23;79.36;101480.25;5075903;28;20239;-74
2023/07/18 06:33:58;;;;;;;7.57;4.87;;;15.80;99.90;;;15.27;78.43;101481.59;5075852;28;20205;-74
2023/07/18 06:36:30;;;;;;;8.33;4.97;;;15.80;99.90;;;15.35;77.77;101484.25;5075809;28;20316;-74
2023/07/18 06:39:04;;;;;;;10.30;5.60;;;15.90;99.90;;;15.36;79.15;101477.00;5075805;28;20197;-74
2023/07/18 06:41:35;;;;;;;9.47;5.40;;;15.90;99.90;;;15.42;78.44;101477.16;5075336;28;20300;-74
2023/07/18 06:44:10;;;;;;;9.10;5.17;;;16.00;99.90;;;15.45;78.99;101479.50;5075721;28;20210;-74
2023/07/18 06:46:42;;;;;;;11.60;5.90;;;16.00;99.90;;;15.48;76.89;101481.88;5075140;28;20642;-74
2023/07/18 06:49:15;;;;;;;9.03;5.43;;;16.00;99.90;;;15.49;75.92;101480.88;5075656;28;20198;-74
2023/07/18 06:51:47;;;;;;;11.13;5.37;;;16.00;99.90;;;15.61;76.46;101484.91;5075247;28;20712;-74
2023/07/18 06:54:19;;;;;;;10.53;4.50;;;16.10;99.90;;;15.62;75.90;101486.56;5075282;28;20629;-73
2023/07/18 06:56:51;;;;;;;12.60;5.20;;;16.20;99.90;;;15.67;77.29;101478.78;5075721;28;20226;-73
2023/07/18 06:59:25;;;;;;;9.83;5.30;;;16.20;99.90;;;15.72;76.00;101476.38;5076330;28;20186;-72
2023/07/18 07:01:57;;;;;;;10.00;5.13;;;16.30;99.90;;;15.82;76.53;101486.16;5087994;28;20331;-72
2023/07/18 07:04:29;;;;;;;11.17;4.77;;;16.30;99.90;;;15.88;76.23;101478.19;5088966;28;20217;-72
2023/07/18 07:07:01;;;;;;;8.30;4.67;;;16.40;99.90;;;15.97;74.84;101479.81;5090437;28;20257;-73
2023/07/18 07:09:34;;;;;;;12.20;4.40;;;16.50;99.90;;;15.95;75.68;101471.06;5091020;28;20190;-73
2023/07/18 07:12:08;;;;;;;10.87;4.93;;;16.50;99.90;;;16.07;75.76;101475.03;5090631;28;20213;-72
2023/07/18 07:14:44;;;;;;;10.40;4.73;;;16.60;99.90;;;16.08;76.11;101471.31;5090028;28;20189;-73
2023/07/18 07:17:15;;;;;;;9.93;4.13;;;16.60;99.90;;;16.17;75.05;101480.19;5076378;28;20315;-73
2023/07/18 07:19:47;;;;;;;11.97;4.93;;;16.70;99.90;;;16.16;74.66;101473.94;5074986;28;20243;-74
2023/07/18 07:22:19;;;;;;;12.50;4.50;;;16.70;99.90;;;16.20;76.17;101469.88;5074666;28;20221;-74
2023/07/18 07:24:52;;;;;;;10.30;4.60;;;16.80;99.90;;;16.32;74.16;101473.00;5074950;28;20213;-74
2023/07/18 07:27:23;;;;;;;10.70;4.17;;;16.80;99.80;;;16.35;75.50;101472.66;5074799;28;20226;-74
2023/07/18 07:29:57;;;;;;;10.83;4.23;;;16.90;99.90;;;16.42;74.02;101473.59;5074807;28;20241;-74
2023/07/18 07:32:29;;;;;;;9.13;4.67;;;17.00;99.90;;;16.55;73.53;101463.06;5074697;28;20324;-74
2023/07/18 07:35:00;;;;;;;8.03;4.30;;;17.10;99.40;;;16.61;72.97;101470.44;5074703;28;20229;-74
2023/07/18 07:37:33;;;;;;;10.10;4.60;;;17.20;99.10;;;16.67;72.83;101467.03;5074583;28;20289;-74
2023/07/18 07:40:06;;;;;;;11.07;4.50;;;17.20;99.20;;;16.69;72.58;101458.72;5074625;28;20300;-74
2023/07/18 07:42:41;;;;;;;11.07;4.30;;;17.30;99.30;;;16.78;72.68;101465.72;5074230;28;20205;-74
2023/07/18 07:45:15;;;;;;;8.27;4.63;;;17.30;99.10;;;16.88;71.60;101460.06;5074437;28;20220;-74
2023/07/18 07:47:48;;;;;;;9.97;4.03;;;17.40;98.70;;;16.92;71.92;101464.09;5074446;28;20276;-74
2023/07/18 07:50:20;;;;;;;9.47;4.23;;;17.40;99.00;;;16.97;72.50;101451.69;5074042;28;20657;-74
2023/07/18 07:52:52;;;;;;;9.17;3.93;;;17.50;99.00;;;17.00;72.39;101445.91;5073929;28;20638;-73
2023/07/18 07:55:27;;;;;;;8.97;3.43;;;17.50;98.60;;;17.16;69.54;101456.53;5074246;28;20294;-73
2023/07/18 07:57:59;;;;;;;4.57;3.20;;;17.70;97.60;;;17.16;70.81;101456.53;5073422;28;20189;-73
2023/07/18 08:00:32;;;;;;;9.13;3.70;;;17.70;98.10;;;17.26;70.76;101450.84;5073909;28;20221;-73
2023/07/18 08:03:04;;;;;;;7.10;3.10;;;17.80;97.90;;;17.27;72.09;101438.16;5074165;28;20189;-74
2023/07/18 08:05:36;;;;;;;7.00;3.30;;;17.80;98.60;;;17.40;69.00;101441.03;5074119;28;20229;-74
2023/07/18 08:08:10;;;;;;;6.10;3.27;;;18.00;97.10;;;17.45;69.08;101438.63;5074056;28;20194;-74
2023/07/18 08:10:42;;;;;;;6.90;3.30;;;18.00;97.00;;;17.58;67.64;101433.41;5074005;28;20276;-74
2023/07/18 08:13:16;;;;;;;6.87;2.87;;;18.20;96.20;;;17.67;66.50;101441.22;5073608;28;20655;-73
2023/07/18 08:15:50;;;;;;;8.17;3.33;;;18.20;95.70;;;17.65;67.99;101435.19;5073610;28;20267;-73
2023/07/18 08:18:22;;;;;;;9.00;3.40;;;18.20;96.50;;;17.72;66.91;101427.13;5073633;28;20239;-73
2023/07/18 08:20:54;;;;;;;7.77;2.97;;;18.30;95.90;;;17.89;66.43;101428.59;5073912;28;20296;-73
2023/07/18 08:23:25;;;;;;;5.23;2.30;;;18.50;95.50;;;17.99;64.58;101425.56;5073869;28;20276;-73
2023/07/18 08:25:57;;;;;;;7.27;2.60;;;18.60;94.50;;;18.06;62.98;101426.47;5073764;28;20672;-73
2023/07/18 08:28:29;;;;;;;7.40;3.07;;;18.60;93.70;;;18.02;65.21;101423.31;5073765;28;20189;-73
2023/07/18 08:31:05;;;;;;;6.37;3.00;;;18.60;94.30;;;18.19;64.81;101419.31;5073759;28;20281;-73
2023/07/18 08:33:37;;;;;;;4.93;2.77;;;18.70;94.60;;;18.40;61.87;101425.75;5073657;28;20205;-74
2023/07/18 08:36:10;;;;;;;4.63;2.83;;;18.90;92.80;;;18.33;64.45;101423.00;5073310;28;20229;-73
2023/07/18 08:38:46;;;;;;;6.00;2.50;;;18.90;93.60;;;18.28;63.26;101419.19;5073668;28;20284;-74
2023/07/18 08:41:23;;;;;;;5.93;2.83;;;18.80;93.60;;;18.40;62.44;101413.03;5074083;28;20201;-74
2023/07/18 08:43:56;;;;;;;8.47;2.80;;;19.00;93.10;;;18.73;61.80;101418.78;5073619;28;20186;-74
2023/07/18 08:46:30;;;;;;;6.83;2.40;;;19.20;92.70;;;18.82;61.87;101412.19;5073560;28;20316;-74
2023/07/18 08:49:04;;;;;;;7.37;2.53;;;19.40;92.60;;;18.85;63.24;101411.78;5073563;28;20200;-74
2023/07/18 08:51:36;;;;;;;7.33;2.80;;;19.50;93.10;;;18.83;62.55;101408.44;5073543;28;20270;-74
2023/07/18 08:54:09;;;;;;;5.53;2.70;;;19.40;92.80;;;18.84;62.04;101403.81;5073394;28;20248;-74
2023/07/18 08:56:43;;;;;;;6.20;2.60;;;19.40;93.00;;;18.90;64.78;101401.19;5073070;28;20261;-74
2023/07/18 08:59:18;;;;;;;10.37;3.37;;;19.40;93.40;;;19.15;61.62;101398.81;5073478;28;20190;-74
2023/07/18 09:01:53;;;;;;;5.70;2.20;;;19.60;92.40;;;19.15;59.64;101394.22;5073401;28;20274;-74
2023/07/18 09:04:26;;;;;;;8.43;2.83;;;19.70;91.00;;;19.36;59.61;101398.72;5073871;28;20198;-74
2023/07/18 09:07:03;;;;;;;5.63;2.40;;;19.90;90.80;;;19.34;59.02;101406.25;5073274;28;20312;-74
2023/07/18 09:09:35;;;;;;;7.27;2.07;;;19.90;90.60;;;19.42;56.84;101403.38;5074327;28;20190;-73
2023/07/18 09:12:09;;;;;;;3.97;2.10;;;20.00;88.80;;;19.51;57.96;101404.88;5077501;28;20189;-73
2023/07/18 09:14:41;;;;;;;5.07;2.50;;;20.00;89.80;;;19.62;54.38;101393.41;5077357;28;20216;-73
2023/07/18 09:17:15;;;;;;;3.33;1.90;;;20.20;85.80;;;19.53;57.93;101391.94;5077336;28;20241;-73
2023/07/18 09:19:48;;;;;;;6.40;2.40;;;20.10;89.10;;;19.56;57.23;101391.53;5077171;28;20215;-73
2023/07/18 09:22:21;;;;;;;4.07;2.47;;;20.10;88.40;;;19.67;55.86;101390.94;5076933;28;20658;-73
2023/07/18 09:24:55;;;;;;;6.43;2.30;;;20.20;87.30;;;19.83;55.29;101383.47;5076936;28;20193;-73
2023/07/18 09:27:27;;;;;;;5.77;2.00;;;20.40;85.70;;;19.88;55.98;101383.69;5076797;28;20255;-73
2023/07/18 09:29:59;;;;;;;4.90;2.23;;;20.40;85.90;;;19.97;55.67;101379.72;5077112;28;20228;-73
2023/07/18 09:32:34;;;;;;;6.67;2.20;;;20.50;86.40;;;20.12;55.55;101369.50;5077104;28;20280;-73
2023/07/18 09:35:11;;;;;;;6.90;2.53;;;20.60;85.60;;;20.24;54.92;101365.13;5076917;28;20196;-73
2023/07/18 09:37:50;;;;;;;11.67;2.87;;;20.70;84.90;;;20.36;53.45;101374.38;5076616;28;20185;-73
2023/07/18 09:40:23;;;;;;;8.67;2.63;;;20.90;83.20;;;20.35;53.99;101367.25;5076980;28;20310;-73
2023/07/18 09:42:56;;;;;;;6.90;2.17;;;20.90;83.90;;;20.25;55.15;101354.03;5076524;28;20288;-73
2023/07/18 09:45:30;;;;;;;3.43;1.80;;;20.70;85.00;;;20.28;53.13;101360.97;5076769;28;20589;-73
2023/07/18 09:48:04;;;;;;;8.37;2.27;;;20.80;83.10;;;20.36;53.36;101359.94;5076440;28;20652;-73
2023/07/18 09:50:43;;;;;;;2.90;2.23;;;20.80;82.90;;;20.47;55.41;101354.72;5076425;28;20186;-73
2023/07/18 09:53:18;;;;;;;3.70;1.83;;;21.00;85.30;;;20.52;53.27;101349.47;5076496;28;20756;-73
2023/07/18 09:55:51;;;;;;;5.83;2.23;;;21.00;81.70;;;20.67;53.01;101352.81;5076809;28;20229;-73
2023/07/18 09:58:26;;;;;;;4.13;2.33;;;21.10;82.40;;;20.82;52.57;101354.47;5078067;28;20220;-73
2023/07/18 10:01:00;;;;;;;6.50;2.17;;;21.20;82.20;;;20.70;51.13;101348.81;5085462;28;20193;-71
2023/07/18 10:03:34;;;;;;;4.17;1.90;;;21.20;79.50;;;20.91;49.53;101347.72;5089685;28;20212;-73
2023/07/18 10:06:10;;;;;;;3.20;1.70;;;21.30;78.10;;;21.04;50.10;101344.97;5090087;28;20233;-73
2023/07/18 10:08:47;;;;;;;4.70;1.77;;;21.50;77.90;;;21.15;48.93;101341.63;5088105;28;20276;-74
2023/07/18 10:11:19;;;;;;;3.77;1.90;;;21.60;75.80;;;21.24;48.81;101334.88;5088866;28;20629;-72
2023/07/18 10:14:14;;;;;;;5.20;1.77;;;21.60;76.50;;;21.24;51.18;101332.13;5088832;28;20296;-72
2023/07/18 10:16:55;;;;;;;3.03;1.50;;;21.70;78.70;;;21.25;48.42;101325.66;5075940;28;20702;-73
2023/07/18 10:19:29;;;;;;;7.90;1.83;;;21.70;75.60;;;21.50;47.36;101332.03;5076286;28;20232;-73
2023/07/18 10:22:02;;;;;;;5.43;1.70;;;21.90;73.90;;;21.72;47.48;101327.91;5075206;28;20615;-73
2023/07/18 10:24:34;;;;;;;3.20;1.60;;;22.10;73.80;;;21.68;47.54;101315.78;5076191;28;20224;-73
2023/07/18 10:27:12;;;;;;;4.90;2.00;;;22.10;73.50;;;21.77;46.50;101324.53;5075711;28;20752;-73
2023/07/18 10:30:02;;;;;;;2.27;1.70;;;22.20;72.00;;;21.64;44.15;101319.19;5076051;28;20189;-73
2023/07/18 10:32:37;;;;;;;4.87;1.63;;;22.10;68.60;;;21.87;45.22;101321.31;5076031;28;20296;-73
2023/07/18 10:35:18;;;;;;;3.83;1.93;;;22.20;70.80;;;21.93;47.80;101306.84;5075777;28;20300;-73